Legato 2 — 3FRD6 — position and weather

sailwx.info

Track history (hours):
 
Tides and Currents Weather Stations Pressure Air Temp Water Temp Dewpoint Dewpoint Depression Visibility Wind Speed Wind Dir Waves Ship Positions

Legato 2

Last reported at 2017-Nov-20 00:29 UTC. Time now 2017-Nov-20 02:04 UTC.
Position S 33°06' E 152°03'.

Length 221 m; draft 7.1 m.

Type: Cargo ship. MMSI: 371377000.

Date/timePositionNaut miles runAvg speedWind from/ knotsBaromVisibWave heightAir tempDewpointWater temp
2017-Nov-20 00:29S 33°06' E 152°03'1 1.8
2017-Nov-19 23:56S 33°07' E 152°04'1 1.8
2017-Nov-19 23:29S 33°07' E 152°05'1 1.8
2017-Nov-19 22:56S 33°07' E 152°06'1 1.9
2017-Nov-19 22:29S 33°07' E 152°08'1 1.8
2017-Nov-19 21:59S 33°07' E 152°09'1 1.2
2017-Nov-19 21:30S 33°06' E 152°09'4 8.7
2017-Nov-19 21:00S 33°03' E 152°06'611.5
2017-Nov-19 20:30S 32°59' E 152°01'3 6.5
2017-Nov-19 20:00S 32°56' E 152°03'611.9
2017-Nov-19 19:30S 32°54' E 152°09'612.2
2017-Nov-19 19:00S 32°51' E 152°16'612.5
2017-Nov-19 18:30S 32°49' E 152°23'713.1
2017-Nov-19 18:00S 32°45' E 152°29'714.2
2017-Nov-19 17:30S 32°39' E 152°33'714.2
2017-Nov-19 17:00S 32°33' E 152°38'714.2
2017-Nov-19 16:30S 32°27' E 152°43'23014.3
2017-Nov-19 00:23S 28°45' E 153°50'614.6
2017-Nov-18 23:59S 28°39' E 153°52'714.4
2017-Nov-18 23:30S 28°32' E 153°52'714.3
2017-Nov-18 23:01S 28°25' E 153°53'714.1
2017-Nov-18 22:30S 28°18' E 153°53'714.1
2017-Nov-18 22:01S 28°11' E 153°53'714.0
2017-Nov-18 21:30S 28°04' E 153°54'713.8
2017-Nov-18 21:00S 27°57' E 153°54'713.8
2017-Nov-18 20:30S 27°50' E 153°55'713.9
2017-Nov-18 20:00S 27°43' E 153°55'714.0
2017-Nov-18 19:30S 27°36' E 153°55'  
Track history (hours):
 
Tides and Currents Weather Stations Pressure Air Temp Water Temp Dewpoint Dewpoint Depression Visibility Wind Speed Wind Dir Waves Ship Positions

Legato 2

Last reported at 2017-Nov-20 00:29 UTC. Time now 2017-Nov-20 02:04 UTC.
Position S 33°06' E 152°03'.

Length 221 m; draft 7.1 m.

Type: Cargo ship. MMSI: 371377000.

Date/timePositionNaut miles runAvg speedWind from/ knotsBaromVisibWave heightAir tempDewpointWater temp
2017-Nov-20 00:29S 33°06' E 152°03'1 1.8
2017-Nov-19 23:56S 33°07' E 152°04'1 1.8
2017-Nov-19 23:29S 33°07' E 152°05'1 1.8
2017-Nov-19 22:56S 33°07' E 152°06'1 1.9
2017-Nov-19 22:29S 33°07' E 152°08'1 1.8
2017-Nov-19 21:59S 33°07' E 152°09'1 1.2
2017-Nov-19 21:30S 33°06' E 152°09'4 8.7
2017-Nov-19 21:00S 33°03' E 152°06'611.5
2017-Nov-19 20:30S 32°59' E 152°01'3 6.5
2017-Nov-19 20:00S 32°56' E 152°03'611.9
2017-Nov-19 19:30S 32°54' E 152°09'612.2
2017-Nov-19 19:00S 32°51' E 152°16'612.5
2017-Nov-19 18:30S 32°49' E 152°23'713.1
2017-Nov-19 18:00S 32°45' E 152°29'714.2
2017-Nov-19 17:30S 32°39' E 152°33'714.2
2017-Nov-19 17:00S 32°33' E 152°38'714.2
2017-Nov-19 16:30S 32°27' E 152°43'23014.3
2017-Nov-19 00:23S 28°45' E 153°50'614.6
2017-Nov-18 23:59S 28°39' E 153°52'714.4
2017-Nov-18 23:30S 28°32' E 153°52'714.3
2017-Nov-18 23:01S 28°25' E 153°53'714.1
2017-Nov-18 22:30S 28°18' E 153°53'714.1
2017-Nov-18 22:01S 28°11' E 153°53'714.0
2017-Nov-18 21:30S 28°04' E 153°54'713.8
2017-Nov-18 21:00S 27°57' E 153°54'713.8
2017-Nov-18 20:30S 27°50' E 153°55'713.9
2017-Nov-18 20:00S 27°43' E 153°55'714.0
2017-Nov-18 19:30S 27°36' E 153°55'  

Dump ship's entire track history